Time;durP1;ratioP1;P1;durP2;ratioP2;P2;SDS_P1;SDS_P2;PMS_P1;PMS_P2;Temp;Humidity;BMP_temperature;BMP_pressure;BME280_temperature;BME280_humidity;BME280_pressure;Samples;Min_cycle;Max_cycle;Signal;HPM_P1;HPM_P2
2023/02/23 00:01:05;;;;;;;11.48;5.70;;;22.90;42.00;;;;;;6279517;27;80684;-59
2023/02/23 00:04:07;;;;;;;8.52;5.43;;;22.90;41.90;;;;;;6269025;27;80483;-58
2023/02/23 00:07:09;;;;;;;7.75;4.90;;;22.90;41.70;;;;;;6276235;27;80766;-59
2023/02/23 00:10:10;;;;;;;9.35;5.38;;;22.90;41.90;;;;;;6278609;27;80522;-58
2023/02/23 00:13:11;;;;;;;8.63;5.85;;;22.90;41.60;;;;;;6268521;27;80560;-59
2023/02/23 00:16:12;;;;;;;10.13;5.70;;;22.90;41.80;;;;;;6266114;27;80323;-60
2023/02/23 00:19:13;;;;;;;9.10;5.20;;;22.90;41.60;;;;;;6278439;27;81277;-60
2023/02/23 00:22:13;;;;;;;8.18;5.22;;;22.90;41.50;;;;;;6278940;27;81338;-61
2023/02/23 00:25:14;;;;;;;7.82;5.03;;;22.80;41.50;;;;;;6262934;27;80200;-60
2023/02/23 00:28:15;;;;;;;7.95;5.22;;;22.90;41.50;;;;;;6254144;27;80236;-60
2023/02/23 00:31:15;;;;;;;7.90;5.30;;;22.80;41.40;;;;;;6276731;27;80696;-59
2023/02/23 00:34:19;;;;;;;8.02;5.00;;;22.80;41.40;;;;;;6239338;27;83245;-60
2023/02/23 00:37:21;;;;;;;8.88;5.18;;;22.80;41.40;;;;;;6272445;27;80863;-60
2023/02/23 00:40:23;;;;;;;7.68;5.22;;;22.80;41.30;;;;;;6278211;27;81045;-62
2023/02/23 00:43:26;;;;;;;8.73;5.50;;;22.80;41.30;;;;;;6264319;27;80164;-61
2023/02/23 00:46:27;;;;;;;10.77;5.63;;;22.80;41.20;;;;;;6278469;27;81524;-62
2023/02/23 00:49:27;;;;;;;9.27;5.70;;;22.80;41.00;;;;;;6236190;28;80443;-61
2023/02/23 00:52:28;;;;;;;6.82;4.95;;;22.80;40.90;;;;;;6275875;27;80724;-62
2023/02/23 00:55:29;;;;;;;8.40;5.65;;;22.80;41.00;;;;;;6277251;27;80380;-59
2023/02/23 00:58:30;;;;;;;9.27;5.07;;;22.80;40.80;;;;;;6278071;27;80373;-60
2023/02/23 01:01:30;;;;;;;9.20;4.85;;;22.80;40.90;;;;;;6278276;27;81282;-60
2023/02/23 01:04:31;;;;;;;9.05;5.30;;;22.80;41.00;;;;;;6277998;27;81285;-59
2023/02/23 01:07:31;;;;;;;7.65;4.82;;;22.70;41.10;;;;;;6260574;27;83618;-60
2023/02/23 01:10:32;;;;;;;8.32;5.20;;;22.70;41.20;;;;;;6263926;27;80542;-60
2023/02/23 01:13:32;;;;;;;8.02;5.15;;;22.70;41.10;;;;;;6259557;27;80818;-59
2023/02/23 01:16:33;;;;;;;8.38;4.93;;;22.70;41.30;;;;;;6254041;27;83354;-59
2023/02/23 01:19:33;;;;;;;8.85;4.63;;;22.70;41.30;;;;;;6277840;27;81628;-59
2023/02/23 01:22:35;;;;;;;9.40;5.60;;;22.70;41.30;;;;;;6259173;27;86144;-60
2023/02/23 01:25:37;;;;;;;7.13;4.70;;;22.70;41.30;;;;;;6264706;27;81025;-60
2023/02/23 01:28:37;;;;;;;7.20;4.72;;;22.70;41.30;;;;;;6245939;27;81976;-60
2023/02/23 01:31:38;;;;;;;8.48;5.55;;;22.70;41.20;;;;;;6278009;27;80524;-60
2023/02/23 01:34:38;;;;;;;8.45;5.30;;;22.70;41.00;;;;;;6277670;27;80506;-60
2023/02/23 01:37:39;;;;;;;7.70;5.15;;;22.70;41.00;;;;;;6257070;27;83487;-60
2023/02/23 01:40:41;;;;;;;8.77;5.13;;;22.70;40.90;;;;;;6255858;27;83575;-59
2023/02/23 01:43:42;;;;;;;7.28;4.72;;;22.70;41.00;;;;;;6257995;27;81468;-58
2023/02/23 01:46:44;;;;;;;8.55;5.65;;;22.70;41.10;;;;;;6276649;27;80828;-58
2023/02/23 01:49:44;;;;;;;9.02;5.03;;;22.70;41.00;;;;;;6277185;27;80574;-58
2023/02/23 01:52:45;;;;;;;8.45;5.13;;;22.70;40.90;;;;;;6263263;27;80439;-59
2023/02/23 01:55:48;;;;;;;9.35;5.78;;;22.70;40.90;;;;;;6275996;27;81515;-58
2023/02/23 01:58:51;;;;;;;8.20;5.05;;;22.70;40.70;;;;;;6237972;27;83231;-60
2023/02/23 02:01:51;;;;;;;6.95;4.78;;;22.70;40.80;;;;;;6239199;27;83681;-60
2023/02/23 02:04:54;;;;;;;9.68;5.50;;;22.70;40.70;;;;;;6264094;27;80451;-58
2023/02/23 02:07:57;;;;;;;9.50;5.60;;;22.60;40.60;;;;;;6275898;27;81611;-59
2023/02/23 02:10:58;;;;;;;7.97;4.95;;;22.70;40.80;;;;;;6276089;27;80587;-61
2023/02/23 02:13:58;;;;;;;8.48;4.75;;;22.70;40.80;;;;;;6267081;27;80665;-61
2023/02/23 02:17:01;;;;;;;8.25;5.00;;;22.70;40.70;;;;;;6247730;27;83032;-61
2023/02/23 02:20:04;;;;;;;7.10;4.32;;;22.60;40.60;;;;;;6273751;27;80753;-61
2023/02/23 02:23:07;;;;;;;8.68;5.25;;;22.70;40.60;;;;;;6257961;27;81842;-60
2023/02/23 02:26:08;;;;;;;7.28;5.07;;;22.70;40.70;;;;;;6257580;27;83400;-60
2023/02/23 02:29:09;;;;;;;7.30;5.45;;;22.70;40.50;;;;;;6275985;27;82394;-61
2023/02/23 02:32:09;;;;;;;7.80;4.82;;;22.60;40.50;;;;;;6275004;27;80508;-60
2023/02/23 02:35:10;;;;;;;7.40;4.80;;;22.60;40.50;;;;;;6275113;27;81373;-61
2023/02/23 02:38:10;;;;;;;8.25;5.63;;;22.60;40.50;;;;;;6257570;27;81449;-61
2023/02/23 02:41:11;;;;;;;8.63;4.55;;;22.60;40.50;;;;;;6276794;27;80521;-59
2023/02/23 02:44:12;;;;;;;7.55;5.00;;;22.60;40.50;;;;;;6275573;27;81830;-59
2023/02/23 02:47:12;;;;;;;8.23;5.60;;;22.60;40.50;;;;;;6257122;27;83401;-60
2023/02/23 02:50:13;;;;;;;7.88;4.65;;;22.60;40.70;;;;;;6275810;27;81143;-61
2023/02/23 02:53:13;;;;;;;7.03;4.47;;;22.60;40.80;;;;;;6256228;27;80281;-60
2023/02/23 02:56:18;;;;;;;7.15;4.30;;;22.60;40.70;;;;;;6251265;27;81898;-61
2023/02/23 04:18:49;;;;;;;6.90;4.40;;;22.50;40.00;;;;;;6253629;27;82834;-58
2023/02/23 04:21:49;;;;;;;7.22;4.35;;;22.50;40.00;;;;;;6266746;27;80430;-59
2023/02/23 04:24:50;;;;;;;8.48;4.75;;;22.50;40.00;;;;;;6279270;27;80569;-60
2023/02/23 04:27:51;;;;;;;7.55;5.35;;;22.60;40.20;;;;;;6267333;27;80353;-61
2023/02/23 04:30:51;;;;;;;8.95;5.30;;;22.60;39.90;;;;;;6275739;27;81379;-60
2023/02/23 04:33:52;;;;;;;7.60;4.85;;;22.60;39.60;;;;;;6248495;27;82040;-59
2023/02/23 04:36:52;;;;;;;6.35;4.32;;;22.70;39.40;;;;;;6272316;27;83721;-60
2023/02/23 04:39:53;;;;;;;11.75;7.07;;;22.70;38.90;;;;;;6265658;27;83918;-60
2023/02/23 04:42:54;;;;;;;13.43;7.20;;;22.70;38.70;;;;;;6267160;27;80402;-60
2023/02/23 04:45:54;;;;;;;13.60;9.18;;;22.80;38.70;;;;;;6263877;27;80368;-59
2023/02/23 04:48:55;;;;;;;14.48;9.05;;;22.80;38.70;;;;;;6257592;27;81313;-59
2023/02/23 04:51:56;;;;;;;15.10;9.38;;;22.80;38.50;;;;;;6260712;27;81758;-59
2023/02/23 04:54:56;;;;;;;13.05;8.90;;;22.90;38.60;;;;;;6240217;27;83913;-59
2023/02/23 04:57:58;;;;;;;14.32;9.50;;;22.90;38.40;;;;;;6262047;27;80664;-61
2023/02/23 05:00:58;;;;;;;16.52;10.05;;;22.90;38.60;;;;;;6260838;27;81094;-60
2023/02/23 05:04:01;;;;;;;17.08;10.02;;;22.90;38.80;;;;;;6250300;27;85106;-60
2023/02/23 05:07:02;;;;;;;13.05;9.70;;;22.90;38.30;;;;;;6255334;27;83072;-61
2023/02/23 05:10:03;;;;;;;14.93;9.20;;;22.90;38.60;;;;;;6263828;27;82955;-70
2023/02/23 05:13:03;;;;;;;14.38;9.43;;;23.00;38.30;;;;;;6258624;27;80810;-60
2023/02/23 05:16:04;;;;;;;14.80;9.00;;;23.00;38.10;;;;;;6257314;27;80802;-59
2023/02/23 05:19:04;;;;;;;13.30;8.63;;;23.00;37.90;;;;;;6267577;27;80482;-59
2023/02/23 05:22:05;;;;;;;16.98;9.30;;;23.00;38.10;;;;;;6267495;27;81679;-59
2023/02/23 05:25:06;;;;;;;14.05;8.52;;;23.00;38.60;;;;;;6266301;27;80683;-61
2023/02/23 05:28:07;;;;;;;18.50;8.38;;;23.00;38.80;;;;;;6268697;27;81264;-60
2023/02/23 05:31:07;;;;;;;11.93;7.68;;;22.90;38.30;;;;;;6267479;27;80835;-60
2023/02/23 05:34:09;;;;;;;15.63;7.70;;;22.90;38.40;;;;;;6260727;27;80563;-59
2023/02/23 05:37:09;;;;;;;13.63;7.15;;;22.90;38.50;;;;;;6273508;27;80581;-59
2023/02/23 05:40:10;;;;;;;17.35;8.05;;;22.90;38.40;;;;;;6265355;27;80353;-60
2023/02/23 05:43:10;;;;;;;14.30;6.70;;;22.90;38.30;;;;;;6272085;27;80590;-60
2023/02/23 05:46:11;;;;;;;13.57;7.55;;;22.90;38.30;;;;;;6275877;27;81069;-59
2023/02/23 05:49:11;;;;;;;15.60;7.68;;;22.90;38.20;;;;;;6277234;27;81325;-68
2023/02/23 05:52:12;;;;;;;13.10;7.63;;;22.90;38.10;;;;;;6271724;27;80993;-68
2023/02/23 05:55:12;;;;;;;12.90;6.68;;;22.90;37.80;;;;;;6268656;27;80603;-71
2023/02/23 05:58:13;;;;;;;10.88;6.60;;;22.90;38.10;;;;;;6276823;27;80093;-65
2023/02/23 06:01:13;;;;;;;14.05;6.50;;;22.90;38.10;;;;;;6276494;27;81219;-72
2023/02/23 06:04:14;;;;;;;15.73;6.68;;;22.90;37.80;;;;;;6275194;27;80731;-61
2023/02/23 06:07:14;;;;;;;13.27;6.45;;;23.00;37.80;;;;;;6274482;27;81039;-59
2023/02/23 06:10:15;;;;;;;16.45;6.93;;;22.90;37.50;;;;;;6276858;27;80445;-59
2023/02/23 06:13:15;;;;;;;9.60;6.07;;;22.90;37.40;;;;;;6271576;27;87641;-61
2023/02/23 06:16:16;;;;;;;9.90;6.07;;;22.90;37.60;;;;;;6274764;27;80710;-59
2023/02/23 06:19:17;;;;;;;12.88;6.05;;;22.90;37.50;;;;;;6263940;27;80948;-59
2023/02/23 06:22:17;;;;;;;11.23;6.60;;;22.90;37.50;;;;;;6269466;27;80688;-60
2023/02/23 06:25:18;;;;;;;10.38;6.60;;;22.90;37.30;;;;;;6273122;27;80537;-60
2023/02/23 06:28:18;;;;;;;13.02;5.50;;;22.90;37.30;;;;;;6273805;27;80492;-54
2023/02/23 06:31:19;;;;;;;9.93;5.95;;;22.90;37.10;;;;;;6272825;27;80206;-54
2023/02/23 06:34:19;;;;;;;9.52;5.53;;;22.90;37.10;;;;;;6269312;27;80963;-54
2023/02/23 06:37:20;;;;;;;8.50;5.45;;;22.80;37.10;;;;;;6240709;27;84800;-52
2023/02/23 06:40:20;;;;;;;7.72;5.32;;;22.90;37.10;;;;;;6259630;27;80775;-56
2023/02/23 06:43:21;;;;;;;9.57;5.50;;;22.80;36.90;;;;;;6272273;27;80351;-53
2023/02/23 06:46:21;;;;;;;9.05;6.07;;;22.80;36.60;;;;;;6279744;27;82010;-56
2023/02/23 06:49:22;;;;;;;12.40;7.00;;;22.80;36.70;;;;;;6279143;27;82422;-50
2023/02/23 06:52:23;;;;;;;11.45;7.65;;;22.60;35.10;;;;;;6267963;27;80259;-54
2023/02/23 06:55:24;;;;;;;15.65;8.38;;;22.40;34.40;;;;;;6244023;27;82348;-49
2023/02/23 06:58:24;;;;;;;15.25;8.40;;;22.20;33.90;;;;;;6269515;27;80474;-50
2023/02/23 07:01:25;;;;;;;15.18;9.07;;;22.00;33.90;;;;;;6272213;27;80908;-50
2023/02/23 07:04:26;;;;;;;11.18;8.07;;;21.90;33.70;;;;;;6266908;27;81886;-47
2023/02/23 07:07:26;;;;;;;13.63;8.35;;;21.80;33.80;;;;;;6261908;27;80444;-52
2023/02/23 07:10:27;;;;;;;13.27;7.68;;;21.70;33.70;;;;;;6275383;27;81756;-52
2023/02/23 07:13:27;;;;;;;13.05;8.40;;;21.70;34.10;;;;;;6270219;27;80385;-53
2023/02/23 07:16:28;;;;;;;14.90;8.63;;;21.60;33.90;;;;;;6248125;27;81790;-50
2023/02/23 07:19:29;;;;;;;12.00;7.88;;;21.50;33.90;;;;;;6261530;27;80389;-49
2023/02/23 07:22:29;;;;;;;10.50;7.75;;;21.50;33.80;;;;;;6252924;27;80805;-59
2023/02/23 07:25:30;;;;;;;12.75;8.10;;;21.40;33.90;;;;;;6266129;27;86451;-59
2023/02/23 07:28:30;;;;;;;12.55;7.72;;;21.40;33.90;;;;;;6275062;27;80760;-59
2023/02/23 07:31:31;;;;;;;11.27;7.47;;;21.30;34.00;;;;;;6278499;27;80303;-59
2023/02/23 07:34:31;;;;;;;13.35;8.10;;;21.30;33.90;;;;;;6279511;27;80603;-59
2023/02/23 07:37:32;;;;;;;13.02;8.27;;;21.20;33.90;;;;;;6260417;27;81167;-59
2023/02/23 07:40:32;;;;;;;12.32;8.05;;;21.20;34.00;;;;;;6281227;27;82073;-59
2023/02/23 07:43:33;;;;;;;11.35;7.07;;;21.20;33.90;;;;;;6281384;27;80263;-60
2023/02/23 07:46:33;;;;;;;13.15;7.18;;;21.20;34.30;;;;;;6277760;27;80610;-59
2023/02/23 07:49:34;;;;;;;12.43;7.43;;;21.40;34.80;;;;;;6280881;27;81854;-59
2023/02/23 07:52:35;;;;;;;11.80;7.20;;;21.50;34.90;;;;;;6261366;27;83392;-59
2023/02/23 07:55:37;;;;;;;10.68;6.88;;;21.60;34.80;;;;;;6277484;27;83183;-58
2023/02/23 07:58:37;;;;;;;10.10;7.10;;;21.70;34.80;;;;;;6277961;27;81840;-58
2023/02/23 08:01:38;;;;;;;10.20;6.70;;;21.80;34.70;;;;;;6278279;27;80256;-60
2023/02/23 08:04:39;;;;;;;13.18;7.85;;;21.90;34.80;;;;;;6277140;27;80874;-58
2023/02/23 08:07:39;;;;;;;11.50;7.85;;;22.00;34.50;;;;;;6280953;27;80300;-59
2023/02/23 08:10:40;;;;;;;11.10;7.13;;;22.00;34.50;;;;;;6273633;27;84016;-59
2023/02/23 08:13:41;;;;;;;14.88;7.72;;;22.00;34.50;;;;;;6260641;27;87697;-58
2023/02/23 08:16:41;;;;;;;9.98;7.07;;;22.10;34.50;;;;;;6276124;27;80574;-59
2023/02/23 08:19:42;;;;;;;12.07;7.50;;;22.10;34.30;;;;;;6281268;27;80244;-60
2023/02/23 08:22:42;;;;;;;13.32;7.53;;;22.20;34.30;;;;;;6281191;27;81346;-59
2023/02/23 08:31:56;;;;;;;9.85;6.80;;;22.40;34.10;;;;;;6299817;27;80583;-60
2023/02/23 08:34:59;;;;;;;12.77;6.93;;;22.50;34.00;;;;;;6305015;27;81022;-59
2023/02/23 08:38:00;;;;;;;11.50;7.45;;;22.60;33.80;;;;;;6304673;27;80790;-60
2023/02/23 08:41:00;;;;;;;16.50;7.78;;;22.60;33.60;;;;;;6295577;27;80899;-59
2023/02/23 08:44:01;;;;;;;12.48;7.20;;;22.70;33.60;;;;;;6301939;27;80415;-60
2023/02/23 08:47:03;;;;;;;11.52;6.70;;;22.80;33.60;;;;;;6295681;27;80251;-59
2023/02/23 08:50:04;;;;;;;15.02;7.15;;;22.90;33.50;;;;;;6297386;27;80243;-59
2023/02/23 08:53:05;;;;;;;11.77;7.13;;;23.00;33.40;;;;;;6294100;27;81143;-59
2023/02/23 08:56:06;;;;;;;10.07;6.80;;;23.00;33.30;;;;;;6291085;27;80609;-59
2023/02/23 08:59:06;;;;;;;12.27;8.13;;;23.10;33.30;;;;;;6303340;27;80716;-60
2023/02/23 09:02:07;;;;;;;12.13;7.93;;;23.10;33.20;;;;;;6306997;27;80821;-59
2023/02/23 09:05:08;;;;;;;18.45;8.73;;;23.20;33.20;;;;;;6305987;27;80436;-59
2023/02/23 09:08:08;;;;;;;15.50;8.30;;;23.20;33.20;;;;;;6302796;27;80874;-57
2023/02/23 09:11:09;;;;;;;15.18;8.60;;;23.30;33.10;;;;;;6296945;27;80312;-57
2023/02/23 09:14:09;;;;;;;11.43;7.50;;;23.30;33.20;;;;;;6299681;27;80958;-58
2023/02/23 09:17:10;;;;;;;17.65;8.18;;;23.40;33.00;;;;;;6304206;27;81215;-58
2023/02/23 09:20:12;;;;;;;14.43;7.90;;;23.50;33.20;;;;;;6296406;27;80117;-68
2023/02/23 09:23:12;;;;;;;12.43;7.70;;;23.50;33.30;;;;;;6305033;27;81798;-67
2023/02/23 09:26:13;;;;;;;9.73;6.68;;;23.50;33.40;;;;;;6301343;27;81771;-66
2023/02/23 09:29:13;;;;;;;12.65;7.68;;;23.60;33.60;;;;;;6299932;27;80909;-67
2023/02/23 09:32:14;;;;;;;14.38;6.97;;;23.70;33.60;;;;;;6294739;27;81628;-63
2023/02/23 09:35:17;;;;;;;12.63;7.72;;;23.70;33.70;;;;;;6300412;27;80397;-57
2023/02/23 09:38:18;;;;;;;13.15;7.55;;;23.70;33.90;;;;;;6303992;27;80590;-58
2023/02/23 09:41:19;;;;;;;15.07;8.48;;;23.70;34.00;;;;;;6303379;27;80706;-57
2023/02/23 09:44:21;;;;;;;12.57;7.63;;;23.80;34.00;;;;;;6300917;27;80546;-58
2023/02/23 09:47:22;;;;;;;13.07;7.75;;;23.80;34.20;;;;;;6298930;27;80306;-58
2023/02/23 09:50:22;;;;;;;14.30;8.05;;;23.80;34.40;;;;;;6294880;27;81875;-47
2023/02/23 09:53:23;;;;;;;13.05;7.78;;;23.80;34.50;;;;;;6304443;27;80443;-48
2023/02/23 09:56:23;;;;;;;14.65;7.78;;;23.80;34.40;;;;;;6301273;27;80560;-52
2023/02/23 09:59:24;;;;;;;13.70;8.18;;;23.80;34.40;;;;;;6299356;27;80711;-51
2023/02/23 10:02:24;;;;;;;12.60;7.95;;;23.90;34.40;;;;;;6302692;27;80761;-51
2023/02/23 10:05:25;;;;;;;15.38;8.32;;;23.90;34.40;;;;;;6294994;27;81573;-52
2023/02/23 10:08:26;;;;;;;15.02;8.27;;;23.90;34.50;;;;;;6304455;27;80469;-49
2023/02/23 10:11:27;;;;;;;14.85;8.85;;;23.90;34.50;;;;;;6301094;27;81364;-49
2023/02/23 10:14:27;;;;;;;12.05;7.43;;;23.90;34.60;;;;;;6289966;27;80988;-49
2023/02/23 10:17:28;;;;;;;11.65;7.57;;;24.00;34.70;;;;;;6302075;27;81770;-49
2023/02/23 10:20:28;;;;;;;12.50;8.02;;;24.00;34.60;;;;;;6296723;27;80365;-50
2023/02/23 10:23:29;;;;;;;13.48;7.05;;;24.00;34.60;;;;;;6303468;27;80513;-47
2023/02/23 10:26:30;;;;;;;12.90;7.80;;;24.00;34.60;;;;;;6287268;27;81471;-49
2023/02/23 10:29:31;;;;;;;14.32;8.20;;;24.00;34.80;;;;;;6302703;27;80790;-47
2023/02/23 10:32:31;;;;;;;11.23;7.50;;;24.00;34.80;;;;;;6297945;27;81467;-54
2023/02/23 10:35:32;;;;;;;12.05;7.55;;;24.10;34.90;;;;;;6301571;27;80443;-52
2023/02/23 10:38:33;;;;;;;14.60;7.78;;;24.10;35.10;;;;;;6271948;27;81550;-54
2023/02/23 10:41:33;;;;;;;11.43;6.88;;;24.10;35.00;;;;;;6298557;27;81708;-49
2023/02/23 10:44:34;;;;;;;13.27;7.22;;;24.10;35.20;;;;;;6296646;27;80688;-51
2023/02/23 10:47:34;;;;;;;13.18;7.15;;;24.10;35.00;;;;;;6296168;27;80605;-54
2023/02/23 10:50:35;;;;;;;12.23;7.80;;;24.10;35.00;;;;;;6293183;27;80663;-50
2023/02/23 10:53:36;;;;;;;12.82;8.18;;;24.20;34.80;;;;;;6289686;27;81764;-52
2023/02/23 10:56:36;;;;;;;11.80;7.43;;;24.30;34.90;;;;;;6290421;27;80680;-53
2023/02/23 10:59:37;;;;;;;9.77;6.53;;;24.30;34.90;;;;;;6294560;27;80710;-50
2023/02/23 11:02:37;;;;;;;13.88;8.00;;;24.30;34.90;;;;;;6292360;27;80959;-59
2023/02/23 11:05:38;;;;;;;11.75;7.55;;;24.30;34.80;;;;;;6299717;27;80681;-59
2023/02/23 11:08:40;;;;;;;15.68;7.32;;;24.40;35.00;;;;;;6288081;27;81518;-58
2023/02/23 11:11:40;;;;;;;11.85;7.07;;;24.40;34.90;;;;;;6300504;27;81411;-59
2023/02/23 11:14:41;;;;;;;10.75;6.97;;;24.40;35.00;;;;;;6292461;27;87260;-59
2023/02/23 11:17:41;;;;;;;10.35;7.03;;;24.40;35.10;;;;;;6297682;27;80758;-60
2023/02/23 11:20:43;;;;;;;12.20;7.35;;;24.50;35.10;;;;;;6282408;27;80505;-59
2023/02/23 11:23:43;;;;;;;11.18;7.05;;;24.40;34.90;;;;;;6293428;27;80677;-59
2023/02/23 11:26:44;;;;;;;12.60;7.32;;;24.50;35.20;;;;;;6290955;27;80460;-58
2023/02/23 11:29:47;;;;;;;12.95;7.60;;;24.50;35.20;;;;;;6304958;27;82455;-59
2023/02/23 11:32:48;;;;;;;16.15;8.43;;;24.50;35.10;;;;;;6302854;27;80679;-59
2023/02/23 11:35:49;;;;;;;11.43;7.20;;;24.60;35.00;;;;;;6300532;27;80682;-59
2023/02/23 11:38:49;;;;;;;11.85;7.15;;;24.60;35.20;;;;;;6296169;27;80898;-58
2023/02/23 11:41:50;;;;;;;11.23;6.75;;;24.60;35.20;;;;;;6301318;27;81834;-59
2023/02/23 11:44:50;;;;;;;14.30;7.68;;;24.60;35.10;;;;;;6300534;27;80989;-59
2023/02/23 11:47:51;;;;;;;12.38;7.47;;;24.60;35.10;;;;;;6298537;27;84261;-59
2023/02/23 11:50:51;;;;;;;12.98;7.60;;;24.60;35.10;;;;;;6298783;27;81568;-58
2023/02/23 11:53:52;;;;;;;10.80;7.43;;;24.60;35.00;;;;;;6294865;27;80449;-57
2023/02/23 11:56:54;;;;;;;12.90;8.43;;;24.60;34.90;;;;;;6293486;27;87250;-60
2023/02/23 11:59:55;;;;;;;16.00;8.30;;;24.60;34.90;;;;;;6297646;27;80281;-59
2023/02/23 12:02:57;;;;;;;14.10;8.18;;;24.70;35.00;;;;;;6295357;27;81621;-59
2023/02/23 12:05:58;;;;;;;15.00;8.88;;;24.60;35.00;;;;;;6299120;27;80939;-59
2023/02/23 12:09:01;;;;;;;14.15;8.00;;;24.60;35.10;;;;;;6297599;27;80943;-63
2023/02/23 12:12:02;;;;;;;12.98;8.15;;;24.60;35.20;;;;;;6283677;27;82183;-60
2023/02/23 12:15:06;;;;;;;16.75;9.00;;;24.60;35.10;;;;;;6302796;27;80595;-59
2023/02/23 12:18:06;;;;;;;15.90;9.18;;;24.60;35.20;;;;;;6283495;27;82055;-59
2023/02/23 12:21:07;;;;;;;16.13;8.90;;;24.50;35.70;;;;;;6283318;27;80801;-58
2023/02/23 12:24:08;;;;;;;16.27;9.27;;;24.50;35.10;;;;;;6306346;27;80917;-59
2023/02/23 12:27:11;;;;;;;18.98;9.43;;;24.50;35.20;;;;;;6305961;27;80889;-59
2023/02/23 12:30:12;;;;;;;15.73;9.30;;;24.40;35.20;;;;;;6305364;27;80876;-58
2023/02/23 12:33:12;;;;;;;11.77;8.00;;;24.40;35.30;;;;;;6301814;27;80431;-59
2023/02/23 12:36:13;;;;;;;16.13;8.30;;;24.40;35.30;;;;;;6302112;27;80850;-59
2023/02/23 12:39:16;;;;;;;13.70;8.07;;;24.30;35.30;;;;;;6297936;27;80788;-59
2023/02/23 12:42:19;;;;;;;14.02;8.27;;;24.20;35.30;;;;;;6302417;27;84826;-59
2023/02/23 12:45:19;;;;;;;15.23;8.40;;;24.20;35.40;;;;;;6298650;27;82699;-60
2023/02/23 12:48:20;;;;;;;14.57;8.25;;;24.10;35.50;;;;;;6306557;27;80134;-60
2023/02/23 12:51:21;;;;;;;14.20;9.02;;;24.10;35.60;;;;;;6289350;27;80828;-59
2023/02/23 12:54:21;;;;;;;15.52;8.75;;;24.10;35.80;;;;;;6305247;27;81280;-52
2023/02/23 12:57:22;;;;;;;13.40;8.50;;;24.00;35.90;;;;;;6304908;27;80636;-52
2023/02/23 13:00:29;;;;;;;15.05;9.23;;;24.00;36.00;;;;;;6295803;27;80793;-49
2023/02/23 13:03:29;;;;;;;18.67;9.48;;;23.90;36.10;;;;;;6301506;27;80748;-53
2023/02/23 13:06:30;;;;;;;16.95;8.75;;;23.90;36.00;;;;;;6300303;27;81496;-53
2023/02/23 13:09:30;;;;;;;18.10;9.38;;;23.90;36.10;;;;;;6304180;27;81111;-52
2023/02/23 13:12:31;;;;;;;18.98;9.10;;;23.90;36.20;;;;;;6302140;27;80420;-51
2023/02/23 13:15:31;;;;;;;12.45;7.80;;;23.80;36.10;;;;;;6302176;27;80365;-48
2023/02/23 13:18:32;;;;;;;13.65;7.90;;;23.90;36.10;;;;;;6273506;27;80770;-51
2023/02/23 13:21:33;;;;;;;12.57;8.15;;;23.80;36.10;;;;;;6277469;27;80723;-53
2023/02/23 13:24:33;;;;;;;17.65;9.60;;;23.80;36.40;;;;;;6278212;27;81400;-51
2023/02/23 13:27:34;;;;;;;14.65;8.68;;;23.80;36.30;;;;;;6290497;27;80826;-57
2023/02/23 13:30:35;;;;;;;16.05;9.20;;;23.80;36.70;;;;;;6295869;27;80810;-62
2023/02/23 13:33:36;;;;;;;15.50;8.88;;;23.80;36.80;;;;;;6282513;27;82075;-61
2023/02/23 13:36:37;;;;;;;16.83;9.65;;;23.80;36.90;;;;;;6299151;27;84164;-64
2023/02/23 13:39:37;;;;;;;19.65;9.88;;;23.80;37.20;;;;;;6302886;27;80641;-65
2023/02/23 13:42:38;;;;;;;15.82;9.80;;;23.70;37.30;;;;;;6301867;27;80633;-64
2023/02/23 13:45:38;;;;;;;17.35;10.27;;;23.70;37.30;;;;;;6294533;27;81363;-64
2023/02/23 13:48:40;;;;;;;18.30;11.57;;;23.70;37.40;;;;;;6297822;27;82906;-64
2023/02/23 13:51:41;;;;;;;16.15;9.50;;;23.60;37.30;;;;;;6273450;27;83226;-65
2023/02/23 13:54:41;;;;;;;16.83;9.40;;;23.60;37.40;;;;;;6300008;27;83391;-63
2023/02/23 13:57:42;;;;;;;16.00;9.38;;;23.60;37.40;;;;;;6299551;27;82705;-63
2023/02/23 14:00:42;;;;;;;18.65;10.35;;;23.60;37.60;;;;;;6299596;27;80524;-64
2023/02/23 14:03:43;;;;;;;16.17;9.50;;;23.50;37.50;;;;;;6296769;27;84146;-64
2023/02/23 14:06:44;;;;;;;14.55;8.38;;;23.50;37.70;;;;;;6277682;27;83350;-72
2023/02/23 14:09:44;;;;;;;16.38;9.35;;;23.50;37.50;;;;;;6298762;27;81693;-61
2023/02/23 14:12:45;;;;;;;16.30;9.00;;;23.50;37.50;;;;;;6283585;27;87662;-66
2023/02/23 14:15:47;;;;;;;18.33;9.85;;;23.50;37.60;;;;;;6296876;27;80801;-61
2023/02/23 14:18:47;;;;;;;16.90;9.05;;;23.50;37.90;;;;;;6299967;27;85255;-63
2023/02/23 14:21:49;;;;;;;17.90;8.98;;;23.50;38.30;;;;;;6290296;27;80547;-66
2023/02/23 14:24:50;;;;;;;16.27;9.32;;;23.50;38.20;;;;;;6296833;27;81856;-61
2023/02/23 14:27:51;;;;;;;357.27;141.98;;;23.50;38.50;;;;;;6301493;27;81798;-61
2023/02/23 14:30:52;;;;;;;565.95;241.63;;;23.50;38.30;;;;;;6290358;27;85651;-63
2023/02/23 14:33:52;;;;;;;605.83;269.65;;;23.50;38.50;;;;;;6294055;27;85975;-63
2023/02/23 14:36:54;;;;;;;708.08;329.52;;;23.50;38.70;;;;;;6295481;27;86781;-61
2023/02/23 14:39:55;;;;;;;765.22;354.15;;;23.50;39.50;;;;;;6294538;27;85360;-60
2023/02/23 14:42:55;;;;;;;821.20;378.95;;;23.50;39.30;;;;;;6293592;27;85689;-62
2023/02/23 14:45:56;;;;;;;835.47;388.52;;;23.50;39.40;;;;;;6288854;27;89125;-62
2023/02/23 14:48:57;;;;;;;907.40;424.75;;;23.50;39.60;;;;;;6285290;27;85670;-60
2023/02/23 14:51:58;;;;;;;880.10;412.65;;;23.50;39.90;;;;;;6294398;27;86176;-61
2023/02/23 14:54:59;;;;;;;887.60;405.13;;;23.50;40.00;;;;;;6273871;27;85393;-60
2023/02/23 14:57:59;;;;;;;739.95;335.55;;;23.50;40.30;;;;;;6281895;27;85675;-62
2023/02/23 15:01:00;;;;;;;685.53;304.92;;;23.50;40.50;;;;;;6284075;27;90141;-67
2023/02/23 15:04:00;;;;;;;610.72;264.98;;;23.50;40.40;;;;;;6269014;27;90161;-65
2023/02/23 15:07:01;;;;;;;553.28;229.05;;;23.50;40.60;;;;;;6282418;27;85926;-65
2023/02/23 15:10:01;;;;;;;517.95;211.98;;;23.50;40.60;;;;;;6292060;27;85429;-66
2023/02/23 15:13:02;;;;;;;475.05;190.60;;;23.50;40.60;;;;;;6272418;27;87437;-65
2023/02/23 15:16:03;;;;;;;444.85;176.48;;;23.40;40.80;;;;;;6292328;27;86626;-62
2023/02/23 15:19:03;;;;;;;421.27;165.27;;;23.40;40.60;;;;;;6280645;27;85860;-64
2023/02/23 15:22:04;;;;;;;378.98;148.98;;;23.30;40.30;;;;;;6293079;27;85239;-64
2023/02/23 15:25:04;;;;;;;369.90;139.05;;;23.30;40.50;;;;;;6283628;27;85436;-64
2023/02/23 15:28:05;;;;;;;368.65;138.85;;;23.30;40.50;;;;;;6266888;27;87934;-64
2023/02/23 15:31:09;;;;;;;336.20;127.65;;;23.30;40.40;;;;;;6285373;27;85693;-62
2023/02/23 15:34:09;;;;;;;318.33;126.95;;;23.40;40.80;;;;;;6281090;27;86536;-62
2023/02/23 15:37:10;;;;;;;278.08;115.45;;;23.30;40.90;;;;;;6276041;27;88478;-63
2023/02/23 15:40:10;;;;;;;265.48;104.68;;;23.40;41.60;;;;;;6276030;27;86752;-61
2023/02/23 15:43:11;;;;;;;253.50;100.32;;;23.30;40.70;;;;;;6272375;27;85689;-61
2023/02/23 15:46:12;;;;;;;226.82;94.80;;;23.30;41.00;;;;;;6266120;27;88687;-60
2023/02/23 15:49:18;;;;;;;218.57;88.68;;;23.30;41.10;;;;;;6275197;27;86099;-59
2023/02/23 15:52:18;;;;;;;;;;;23.30;41.30;;;;;;6282597;27;84240;-61
2023/02/23 15:55:19;;;;;;;191.23;79.63;;;23.30;41.80;;;;;;6290812;27;83118;-61
2023/02/23 15:58:19;;;;;;;181.95;76.30;;;23.40;41.90;;;;;;6280966;27;84296;-63
2023/02/23 16:01:23;;;;;;;177.32;71.55;;;23.40;42.20;;;;;;6283170;27;83826;-60
2023/02/23 16:04:24;;;;;;;158.52;67.75;;;23.40;42.50;;;;;;6285674;27;84367;-61
2023/02/23 16:07:24;;;;;;;166.77;68.45;;;23.40;42.60;;;;;;6298030;27;83146;-61
2023/02/23 16:10:25;;;;;;;157.15;63.08;;;23.40;42.70;;;;;;6279632;27;83397;-61
2023/02/23 16:13:26;;;;;;;142.50;57.97;;;23.50;42.80;;;;;;6279230;27;84497;-59
2023/02/23 16:16:27;;;;;;;143.52;57.40;;;23.50;42.50;;;;;;6289344;27;83462;-60
2023/02/23 16:19:27;;;;;;;124.35;55.15;;;23.50;42.50;;;;;;6295211;27;82844;-61
2023/02/23 16:22:28;;;;;;;128.10;53.72;;;23.50;42.70;;;;;;6283745;27;83507;-60
2023/02/23 16:25:28;;;;;;;119.30;51.33;;;23.50;42.60;;;;;;6292755;27;83377;-61
2023/02/23 16:28:29;;;;;;;131.60;54.92;;;23.50;42.60;;;;;;6291451;27;84704;-61
2023/02/23 16:31:30;;;;;;;110.70;46.65;;;23.50;42.60;;;;;;6289386;27;85171;-61
2023/02/23 16:34:30;;;;;;;115.35;48.28;;;23.50;42.10;;;;;;6291545;27;83988;-54
2023/02/23 16:37:31;;;;;;;103.07;45.53;;;23.60;42.00;;;;;;6272584;27;87379;-58
2023/02/23 16:40:31;;;;;;;106.45;44.72;;;23.60;41.80;;;;;;6285557;27;84744;-58
2023/02/23 16:43:33;;;;;;;103.32;43.38;;;23.50;42.00;;;;;;6296990;27;83356;-54
2023/02/23 16:46:36;;;;;;;94.60;40.45;;;23.60;41.80;;;;;;6287541;27;84245;-55
2023/02/23 16:49:37;;;;;;;92.30;40.03;;;23.50;41.60;;;;;;6281605;27;83112;-57
2023/02/23 16:52:37;;;;;;;87.80;38.92;;;23.50;41.80;;;;;;6279301;27;83438;-57